sensor_id;sensor_type;location;lat;lon;timestamp;pressure;altitude;pressure_sealevel;temperature;humidity
71107;BME280;58763;47.982;11.516;2023-03-03T00:00:35;94184.19;;;-0.27;94.51
71107;BME280;58763;47.982;11.516;2023-03-03T00:03:04;94184.69;;;-0.18;94.17
71107;BME280;58763;47.982;11.516;2023-03-03T00:05:31;94182.50;;;-0.21;93.40
71107;BME280;58763;47.982;11.516;2023-03-03T00:07:58;94179.84;;;-0.21;93.45
71107;BME280;58763;47.982;11.516;2023-03-03T00:10:24;94183.94;;;-0.25;93.23
71107;BME280;58763;47.982;11.516;2023-03-03T00:12:49;94176.56;;;-0.23;93.16
71107;BME280;58763;47.982;11.516;2023-03-03T00:15:21;94176.44;;;-0.10;92.50
71107;BME280;58763;47.982;11.516;2023-03-03T00:17:47;94173.34;;;-0.07;92.18
71107;BME280;58763;47.982;11.516;2023-03-03T00:23:12;94176.13;;;-0.02;91.88
71107;BME280;58763;47.982;11.516;2023-03-03T00:25:42;94175.72;;;0.01;91.18
71107;BME280;58763;47.982;11.516;2023-03-03T00:28:25;94181.34;;;-0.07;91.09
71107;BME280;58763;47.982;11.516;2023-03-03T00:30:53;94192.25;;;0.03;91.52
71107;BME280;58763;47.982;11.516;2023-03-03T00:33:26;94184.81;;;0.12;90.56
71107;BME280;58763;47.982;11.516;2023-03-03T00:35:54;94190.91;;;0.12;90.17
71107;BME280;58763;47.982;11.516;2023-03-03T00:38:20;94189.81;;;0.20;90.26
71107;BME280;58763;47.982;11.516;2023-03-03T00:40:47;94188.72;;;0.09;90.10
71107;BME280;58763;47.982;11.516;2023-03-03T00:43:24;94192.91;;;0.17;89.91
71107;BME280;58763;47.982;11.516;2023-03-03T00:45:56;94186.81;;;0.16;89.69
71107;BME280;58763;47.982;11.516;2023-03-03T00:48:30;94178.66;;;0.11;89.75
71107;BME280;58763;47.982;11.516;2023-03-03T00:50:59;94182.66;;;0.02;90.00
71107;BME280;58763;47.982;11.516;2023-03-03T00:53:27;94181.91;;;-0.05;90.04
71107;BME280;58763;47.982;11.516;2023-03-03T00:55:52;94183.66;;;-0.17;90.26
71107;BME280;58763;47.982;11.516;2023-03-03T00:58:19;94178.66;;;-0.07;90.62
71107;BME280;58763;47.982;11.516;2023-03-03T01:00:50;94178.72;;;-0.14;90.47
71107;BME280;58763;47.982;11.516;2023-03-03T01:03:21;94182.94;;;-0.06;90.80
71107;BME280;58763;47.982;11.516;2023-03-03T01:05:49;94186.75;;;-0.20;90.75
71107;BME280;58763;47.982;11.516;2023-03-03T01:08:15;94181.59;;;-0.15;91.07
71107;BME280;58763;47.982;11.516;2023-03-03T01:11:05;94187.06;;;-0.10;90.74
71107;BME280;58763;47.982;11.516;2023-03-03T01:13:31;94186.03;;;-0.09;90.64
71107;BME280;58763;47.982;11.516;2023-03-03T01:15:58;94185.16;;;-0.03;90.42
71107;BME280;58763;47.982;11.516;2023-03-03T01:18:25;94189.75;;;0.08;90.20
71107;BME280;58763;47.982;11.516;2023-03-03T01:20:51;94181.34;;;0.11;89.86
71107;BME280;58763;47.982;11.516;2023-03-03T01:23:16;94184.13;;;0.16;90.02
71107;BME280;58763;47.982;11.516;2023-03-03T01:25:42;94186.13;;;0.21;89.70
71107;BME280;58763;47.982;11.516;2023-03-03T01:28:07;94184.56;;;0.31;89.03
71107;BME280;58763;47.982;11.516;2023-03-03T01:30:34;94178.56;;;0.36;88.14
71107;BME280;58763;47.982;11.516;2023-03-03T01:32:59;94185.00;;;0.28;88.13
71107;BME280;58763;47.982;11.516;2023-03-03T01:35:25;94186.19;;;0.32;87.91
71107;BME280;58763;47.982;11.516;2023-03-03T01:37:51;94184.72;;;0.18;87.48
71107;BME280;58763;47.982;11.516;2023-03-03T01:40:22;94176.16;;;0.16;87.65
71107;BME280;58763;47.982;11.516;2023-03-03T01:42:48;94182.59;;;0.09;88.31
71107;BME280;58763;47.982;11.516;2023-03-03T01:47:55;94173.88;;;0.02;88.48
71107;BME280;58763;47.982;11.516;2023-03-03T01:50:35;94163.91;;;-0.03;88.30
71107;BME280;58763;47.982;11.516;2023-03-03T01:53:04;94158.59;;;-0.03;88.77
71107;BME280;58763;47.982;11.516;2023-03-03T01:55:36;94162.41;;;0.01;88.97
71107;BME280;58763;47.982;11.516;2023-03-03T01:58:07;94166.13;;;0.00;88.96
71107;BME280;58763;47.982;11.516;2023-03-03T02:00:35;94165.06;;;0.01;88.89
71107;BME280;58763;47.982;11.516;2023-03-03T02:03:03;94167.72;;;0.01;88.87
71107;BME280;58763;47.982;11.516;2023-03-03T02:05:28;94167.97;;;-0.01;88.40
71107;BME280;58763;47.982;11.516;2023-03-03T02:07:54;94161.69;;;-0.06;88.30
71107;BME280;58763;47.982;11.516;2023-03-03T02:10:20;94161.53;;;-0.11;88.85
71107;BME280;58763;47.982;11.516;2023-03-03T02:12:51;94156.34;;;-0.24;89.13
71107;BME280;58763;47.982;11.516;2023-03-03T02:17:59;94156.03;;;-0.34;89.79
71107;BME280;58763;47.982;11.516;2023-03-03T02:23:10;94168.41;;;-0.46;90.52
71107;BME280;58763;47.982;11.516;2023-03-03T02:25:51;94167.41;;;-0.45;89.76
71107;BME280;58763;47.982;11.516;2023-03-03T02:28:19;94158.38;;;-0.44;89.63
71107;BME280;58763;47.982;11.516;2023-03-03T02:30:45;94158.75;;;-0.41;89.34
71107;BME280;58763;47.982;11.516;2023-03-03T02:33:12;94158.00;;;-0.48;89.62
71107;BME280;58763;47.982;11.516;2023-03-03T02:35:38;94160.31;;;-0.51;89.52
71107;BME280;58763;47.982;11.516;2023-03-03T02:39:06;94166.56;;;-0.46;90.32
71107;BME280;58763;47.982;11.516;2023-03-03T02:44:15;94163.31;;;-0.48;90.21
71107;BME280;58763;47.982;11.516;2023-03-03T02:46:46;94161.66;;;-0.42;89.62
71107;BME280;58763;47.982;11.516;2023-03-03T02:49:15;94166.66;;;-0.34;90.02
71107;BME280;58763;47.982;11.516;2023-03-03T02:51:41;94165.00;;;-0.29;89.44
71107;BME280;58763;47.982;11.516;2023-03-03T02:54:09;94157.44;;;-0.32;89.22
71107;BME280;58763;47.982;11.516;2023-03-03T02:56:35;94151.19;;;-0.19;88.99
71107;BME280;58763;47.982;11.516;2023-03-03T02:59:02;94150.06;;;-0.30;89.35
71107;BME280;58763;47.982;11.516;2023-03-03T03:01:28;94156.59;;;-0.26;89.44
71107;BME280;58763;47.982;11.516;2023-03-03T03:03:57;94162.25;;;-0.22;89.09
71107;BME280;58763;47.982;11.516;2023-03-03T03:06:23;94159.09;;;-0.13;89.13
71107;BME280;58763;47.982;11.516;2023-03-03T03:08:48;94163.97;;;-0.10;88.29
71107;BME280;58763;47.982;11.516;2023-03-03T03:11:14;94165.81;;;-0.10;88.39
71107;BME280;58763;47.982;11.516;2023-03-03T03:13:40;94165.06;;;-0.17;88.29
71107;BME280;58763;47.982;11.516;2023-03-03T03:16:05;94160.34;;;-0.15;88.02
71107;BME280;58763;47.982;11.516;2023-03-03T03:18:31;94154.72;;;-0.25;88.45
71107;BME280;58763;47.982;11.516;2023-03-03T03:21:04;94161.50;;;-0.29;88.38
71107;BME280;58763;47.982;11.516;2023-03-03T03:23:30;94160.75;;;-0.36;89.08
71107;BME280;58763;47.982;11.516;2023-03-03T03:25:56;94151.91;;;-0.30;89.11
71107;BME280;58763;47.982;11.516;2023-03-03T03:28:22;94154.00;;;-0.14;88.18
71107;BME280;58763;47.982;11.516;2023-03-03T03:30:50;94161.16;;;-0.33;88.54
71107;BME280;58763;47.982;11.516;2023-03-03T03:33:16;94158.09;;;-0.36;88.93
71107;BME280;58763;47.982;11.516;2023-03-03T03:35:41;94159.09;;;-0.31;88.59
71107;BME280;58763;47.982;11.516;2023-03-03T03:38:10;94155.88;;;-0.39;88.20
71107;BME280;58763;47.982;11.516;2023-03-03T03:40:37;94152.03;;;-0.43;88.49
71107;BME280;58763;47.982;11.516;2023-03-03T03:43:03;94151.53;;;-0.52;89.02
71107;BME280;58763;47.982;11.516;2023-03-03T03:45:29;94157.00;;;-0.47;89.14
71107;BME280;58763;47.982;11.516;2023-03-03T03:47:54;94155.03;;;-0.33;88.71
71107;BME280;58763;47.982;11.516;2023-03-03T03:50:20;94159.88;;;-0.30;88.42
71107;BME280;58763;47.982;11.516;2023-03-03T03:52:46;94161.66;;;-0.24;88.36
71107;BME280;58763;47.982;11.516;2023-03-03T03:55:11;94161.44;;;-0.23;87.90
71107;BME280;58763;47.982;11.516;2023-03-03T03:57:37;94161.66;;;-0.24;88.34
71107;BME280;58763;47.982;11.516;2023-03-03T04:00:04;94165.66;;;-0.15;88.00
71107;BME280;58763;47.982;11.516;2023-03-03T04:02:30;94172.22;;;-0.18;88.02
71107;BME280;58763;47.982;11.516;2023-03-03T04:04:56;94174.81;;;-0.11;87.78
71107;BME280;58763;47.982;11.516;2023-03-03T04:07:23;94172.22;;;-0.18;87.81
71107;BME280;58763;47.982;11.516;2023-03-03T04:09:48;94173.19;;;-0.12;88.25
71107;BME280;58763;47.982;11.516;2023-03-03T04:12:14;94161.69;;;-0.06;87.93
71107;BME280;58763;47.982;11.516;2023-03-03T04:14:39;94164.63;;;0.04;87.93
71107;BME280;58763;47.982;11.516;2023-03-03T04:17:05;94159.31;;;0.04;87.38
71107;BME280;58763;47.982;11.516;2023-03-03T04:19:30;94158.66;;;0.09;87.45
71107;BME280;58763;47.982;11.516;2023-03-03T04:21:56;94159.81;;;0.13;87.39
71107;BME280;58763;47.982;11.516;2023-03-03T04:24:22;94154.56;;;0.24;86.94
71107;BME280;58763;47.982;11.516;2023-03-03T04:26:47;94156.13;;;0.32;86.80
71107;BME280;58763;47.982;11.516;2023-03-03T04:29:13;94158.13;;;0.36;86.70
71107;BME280;58763;47.982;11.516;2023-03-03T04:31:38;94164.47;;;0.35;86.92
71107;BME280;58763;47.982;11.516;2023-03-03T04:34:05;94157.72;;;0.33;87.16
71107;BME280;58763;47.982;11.516;2023-03-03T04:36:31;94164.47;;;0.35;86.93
71107;BME280;58763;47.982;11.516;2023-03-03T04:38:56;94163.00;;;0.39;87.39
71107;BME280;58763;47.982;11.516;2023-03-03T04:41:22;94174.66;;;0.38;87.75
71107;BME280;58763;47.982;11.516;2023-03-03T04:43:48;94166.44;;;0.40;87.42
71107;BME280;58763;47.982;11.516;2023-03-03T04:46:13;94173.41;;;0.41;87.16
71107;BME280;58763;47.982;11.516;2023-03-03T04:48:39;94166.81;;;0.43;87.68
71107;BME280;58763;47.982;11.516;2023-03-03T04:51:05;94172.88;;;0.50;87.27
71107;BME280;58763;47.982;11.516;2023-03-03T04:53:30;94160.16;;;0.52;87.44
71107;BME280;58763;47.982;11.516;2023-03-03T04:55:56;94173.28;;;0.65;86.49
71107;BME280;58763;47.982;11.516;2023-03-03T04:58:21;94172.00;;;0.68;86.42
71107;BME280;58763;47.982;11.516;2023-03-03T05:00:53;94176.06;;;0.70;86.41
71107;BME280;58763;47.982;11.516;2023-03-03T05:03:20;94167.31;;;0.70;85.88
71107;BME280;58763;47.982;11.516;2023-03-03T05:05:46;94165.66;;;0.69;86.00
71107;BME280;58763;47.982;11.516;2023-03-03T05:08:13;94167.88;;;0.72;86.14
71107;BME280;58763;47.982;11.516;2023-03-03T05:10:39;94168.38;;;0.81;85.97
71107;BME280;58763;47.982;11.516;2023-03-03T05:13:05;94164.31;;;0.78;86.07
71107;BME280;58763;47.982;11.516;2023-03-03T05:15:31;94166.66;;;0.86;85.84
71107;BME280;58763;47.982;11.516;2023-03-03T05:17:57;94169.53;;;0.85;85.98
71107;BME280;58763;47.982;11.516;2023-03-03T05:20:24;94170.72;;;0.89;86.28
71107;BME280;58763;47.982;11.516;2023-03-03T05:22:49;94178.09;;;0.87;86.21
71107;BME280;58763;47.982;11.516;2023-03-03T05:25:15;94176.06;;;0.89;86.44
71107;BME280;58763;47.982;11.516;2023-03-03T05:27:41;94169.09;;;0.88;86.85
71107;BME280;58763;47.982;11.516;2023-03-03T05:30:09;94162.75;;;0.89;86.93
71107;BME280;58763;47.982;11.516;2023-03-03T05:32:35;94169.19;;;0.81;86.81
71107;BME280;58763;47.982;11.516;2023-03-03T05:35:02;94173.13;;;0.79;87.53
71107;BME280;58763;47.982;11.516;2023-03-03T05:37:28;94171.63;;;0.83;87.43
71107;BME280;58763;47.982;11.516;2023-03-03T05:39:54;94174.44;;;0.99;87.51
71107;BME280;58763;47.982;11.516;2023-03-03T05:42:19;94175.28;;;1.00;87.50
71107;BME280;58763;47.982;11.516;2023-03-03T05:44:46;94168.22;;;1.17;86.92
71107;BME280;58763;47.982;11.516;2023-03-03T05:47:11;94166.03;;;1.14;86.92
71107;BME280;58763;47.982;11.516;2023-03-03T05:49:38;94176.47;;;1.15;86.99
71107;BME280;58763;47.982;11.516;2023-03-03T05:52:03;94183.19;;;1.18;86.54
71107;BME280;58763;47.982;11.516;2023-03-03T05:54:29;94187.47;;;1.19;87.00
71107;BME280;58763;47.982;11.516;2023-03-03T05:56:55;94183.06;;;1.24;87.29
71107;BME280;58763;47.982;11.516;2023-03-03T05:59:22;94189.09;;;1.20;87.52
71107;BME280;58763;47.982;11.516;2023-03-03T06:01:49;94189.81;;;1.27;87.15
71107;BME280;58763;47.982;11.516;2023-03-03T06:04:14;94190.00;;;1.14;87.07
71107;BME280;58763;47.982;11.516;2023-03-03T06:06:40;94199.97;;;1.18;87.22
71107;BME280;58763;47.982;11.516;2023-03-03T06:09:06;94198.38;;;1.29;87.26
71107;BME280;58763;47.982;11.516;2023-03-03T06:11:32;94201.28;;;1.27;87.02
71107;BME280;58763;47.982;11.516;2023-03-03T06:13:58;94202.88;;;1.28;86.80
71107;BME280;58763;47.982;11.516;2023-03-03T06:16:23;94201.03;;;1.29;86.79
71107;BME280;58763;47.982;11.516;2023-03-03T06:18:49;94202.81;;;1.35;86.68
71107;BME280;58763;47.982;11.516;2023-03-03T06:21:14;94206.50;;;1.34;86.23
71107;BME280;58763;47.982;11.516;2023-03-03T06:23:40;94208.34;;;1.33;86.52
71107;BME280;58763;47.982;11.516;2023-03-03T06:26:06;94207.66;;;1.38;86.43
71107;BME280;58763;47.982;11.516;2023-03-03T06:28:32;94214.16;;;1.42;86.21
71107;BME280;58763;47.982;11.516;2023-03-03T06:30:57;94211.59;;;1.47;86.41
71107;BME280;58763;47.982;11.516;2023-03-03T06:33:23;94211.59;;;1.47;85.87
71107;BME280;58763;47.982;11.516;2023-03-03T06:35:53;94207.22;;;1.41;86.27
71107;BME280;58763;47.982;11.516;2023-03-03T06:38:19;94219.50;;;1.42;86.25
71107;BME280;58763;47.982;11.516;2023-03-03T06:40:45;94219.59;;;1.47;86.44
71107;BME280;58763;47.982;11.516;2023-03-03T06:43:12;94221.81;;;1.50;85.93
71107;BME280;58763;47.982;11.516;2023-03-03T06:45:37;94226.31;;;1.50;86.11
71107;BME280;58763;47.982;11.516;2023-03-03T06:48:03;94223.09;;;1.48;86.30
71107;BME280;58763;47.982;11.516;2023-03-03T06:50:29;94226.09;;;1.39;86.68
71107;BME280;58763;47.982;11.516;2023-03-03T06:53:13;94233.41;;;1.44;86.46
71107;BME280;58763;47.982;11.516;2023-03-03T06:55:39;94230.63;;;1.51;86.71
71107;BME280;58763;47.982;11.516;2023-03-03T06:58:13;94234.25;;;1.56;85.96
71107;BME280;58763;47.982;11.516;2023-03-03T07:00:44;94232.03;;;1.53;86.19
71107;BME280;58763;47.982;11.516;2023-03-03T07:03:16;94240.28;;;1.63;86.04
71107;BME280;58763;47.982;11.516;2023-03-03T07:05:42;94241.91;;;1.76;84.91
71107;BME280;58763;47.982;11.516;2023-03-03T07:08:13;94244.81;;;1.74;85.05
71107;BME280;58763;47.982;11.516;2023-03-03T07:10:39;94239.47;;;1.74;84.91
71107;BME280;58763;47.982;11.516;2023-03-03T07:13:19;94244.91;;;1.68;85.21
71107;BME280;58763;47.982;11.516;2023-03-03T07:15:46;94252.31;;;1.66;85.82
71107;BME280;58763;47.982;11.516;2023-03-03T07:18:38;94249.19;;;1.69;85.50
71107;BME280;58763;47.982;11.516;2023-03-03T07:21:35;94256.16;;;1.70;85.78
71107;BME280;58763;47.982;11.516;2023-03-03T07:24:26;94256.31;;;1.86;84.96
71107;BME280;58763;47.982;11.516;2023-03-03T07:26:56;94256.06;;;1.76;84.90
71107;BME280;58763;47.982;11.516;2023-03-03T07:29:28;94261.97;;;1.90;84.82
71107;BME280;58763;47.982;11.516;2023-03-03T07:31:58;94261.97;;;1.78;84.87
71107;BME280;58763;47.982;11.516;2023-03-03T07:34:50;94267.16;;;1.73;85.35
71107;BME280;58763;47.982;11.516;2023-03-03T07:37:26;94268.94;;;1.79;84.88
71107;BME280;58763;47.982;11.516;2023-03-03T07:39:54;94267.97;;;1.74;85.01
71107;BME280;58763;47.982;11.516;2023-03-03T07:42:38;94267.97;;;1.74;85.42
71107;BME280;58763;47.982;11.516;2023-03-03T07:47:46;94277.38;;;1.76;85.52
71107;BME280;58763;47.982;11.516;2023-03-03T07:50:15;94281.69;;;1.77;85.37
71107;BME280;58763;47.982;11.516;2023-03-03T07:52:55;94282.47;;;1.78;85.19
71107;BME280;58763;47.982;11.516;2023-03-03T07:55:38;94281.88;;;1.64;85.31
71107;BME280;58763;47.982;11.516;2023-03-03T08:03:34;94288.56;;;1.55;86.72
71107;BME280;58763;47.982;11.516;2023-03-03T08:08:51;94294.88;;;1.72;86.20
71107;BME280;58763;47.982;11.516;2023-03-03T08:11:16;94294.06;;;1.72;85.94
71107;BME280;58763;47.982;11.516;2023-03-03T08:13:42;94294.75;;;1.67;86.13
71107;BME280;58763;47.982;11.516;2023-03-03T08:18:37;94290.56;;;1.71;86.30
71107;BME280;58763;47.982;11.516;2023-03-03T08:21:08;94288.84;;;1.77;85.57
71107;BME280;58763;47.982;11.516;2023-03-03T08:23:35;94286.41;;;1.75;86.16
71107;BME280;58763;47.982;11.516;2023-03-03T08:26:01;94290.56;;;1.71;86.23
71107;BME280;58763;47.982;11.516;2023-03-03T08:28:26;94287.94;;;1.83;85.92
71107;BME280;58763;47.982;11.516;2023-03-03T08:30:52;94290.94;;;1.75;85.98
71107;BME280;58763;47.982;11.516;2023-03-03T08:33:17;94293.25;;;1.71;86.38
71107;BME280;58763;47.982;11.516;2023-03-03T08:35:44;94294.28;;;1.70;86.69
71107;BME280;58763;47.982;11.516;2023-03-03T08:38:11;94288.16;;;1.81;86.49
71107;BME280;58763;47.982;11.516;2023-03-03T08:40:37;94288.75;;;1.83;85.82
71107;BME280;58763;47.982;11.516;2023-03-03T08:43:03;94289.91;;;1.87;86.04
71107;BME280;58763;47.982;11.516;2023-03-03T08:45:29;94287.09;;;1.82;85.88
71107;BME280;58763;47.982;11.516;2023-03-03T08:47:55;94291.88;;;1.80;86.20
71107;BME280;58763;47.982;11.516;2023-03-03T08:50:20;94289.31;;;1.85;86.33
71107;BME280;58763;47.982;11.516;2023-03-03T08:52:46;94293.63;;;1.86;86.27
71107;BME280;58763;47.982;11.516;2023-03-03T08:55:12;94299.31;;;1.90;86.62
71107;BME280;58763;47.982;11.516;2023-03-03T08:57:38;94296.41;;;1.91;86.47
71107;BME280;58763;47.982;11.516;2023-03-03T09:00:09;94284.56;;;1.87;86.49
71107;BME280;58763;47.982;11.516;2023-03-03T09:02:36;94290.84;;;1.93;86.96
71107;BME280;58763;47.982;11.516;2023-03-03T09:05:02;94290.41;;;1.96;86.59
71107;BME280;58763;47.982;11.516;2023-03-03T09:07:28;94284.13;;;2.02;86.80
71107;BME280;58763;47.982;11.516;2023-03-03T09:09:54;94284.03;;;2.08;86.52
71107;BME280;58763;47.982;11.516;2023-03-03T09:12:46;94291.44;;;2.06;87.02
71107;BME280;58763;47.982;11.516;2023-03-03T09:15:23;94296.31;;;2.09;86.92
71107;BME280;58763;47.982;11.516;2023-03-03T09:17:50;94310.25;;;2.12;87.04
71107;BME280;58763;47.982;11.516;2023-03-03T09:20:36;94308.59;;;2.10;87.23
71107;BME280;58763;47.982;11.516;2023-03-03T09:26:25;94310.25;;;2.23;85.68
71107;BME280;58763;47.982;11.516;2023-03-03T09:31:44;94317.88;;;2.43;85.75
71107;BME280;58763;47.982;11.516;2023-03-03T09:34:23;94323.13;;;2.61;84.15
71107;BME280;58763;47.982;11.516;2023-03-03T09:36:52;94321.16;;;2.68;83.94
71107;BME280;58763;47.982;11.516;2023-03-03T09:39:24;94315.22;;;2.77;84.15
71107;BME280;58763;47.982;11.516;2023-03-03T09:45:02;94325.88;;;2.89;83.11
71107;BME280;58763;47.982;11.516;2023-03-03T09:53:26;94333.75;;;3.07;82.06
71107;BME280;58763;47.982;11.516;2023-03-03T09:56:08;94337.41;;;3.18;81.74
71107;BME280;58763;47.982;11.516;2023-03-03T10:04:44;94345.16;;;2.79;82.37
71107;BME280;58763;47.982;11.516;2023-03-03T10:18:29;94354.56;;;2.94;82.03
71107;BME280;58763;47.982;11.516;2023-03-03T10:21:15;94351.75;;;3.00;82.33
71107;BME280;58763;47.982;11.516;2023-03-03T10:23:52;94350.66;;;3.13;82.26
71107;BME280;58763;47.982;11.516;2023-03-03T10:38:48;94360.91;;;3.56;81.46
71107;BME280;58763;47.982;11.516;2023-03-03T11:01:23;94349.44;;;4.16;78.74
71107;BME280;58763;47.982;11.516;2023-03-03T11:04:12;94352.78;;;4.24;78.82
71107;BME280;58763;47.982;11.516;2023-03-03T11:07:01;94352.38;;;4.15;77.48
71107;BME280;58763;47.982;11.516;2023-03-03T11:09:37;94355.72;;;4.22;78.07
71107;BME280;58763;47.982;11.516;2023-03-03T11:12:25;94353.69;;;4.29;78.56
71107;BME280;58763;47.982;11.516;2023-03-03T11:15:21;94359.44;;;4.38;77.86
71107;BME280;58763;47.982;11.516;2023-03-03T11:17:57;94362.03;;;4.49;77.22
71107;BME280;58763;47.982;11.516;2023-03-03T11:20:37;94355.88;;;4.49;77.28
71107;BME280;58763;47.982;11.516;2023-03-03T11:23:28;94358.38;;;4.55;77.77
71107;BME280;58763;47.982;11.516;2023-03-03T11:29:08;94360.75;;;4.68;76.53
71107;BME280;58763;47.982;11.516;2023-03-03T11:31:45;94350.66;;;4.75;76.02
71107;BME280;58763;47.982;11.516;2023-03-03T11:34:36;94354.41;;;4.74;75.72
71107;BME280;58763;47.982;11.516;2023-03-03T11:37:16;94352.59;;;4.80;75.59
71107;BME280;58763;47.982;11.516;2023-03-03T11:39:48;94359.00;;;4.96;75.35
71107;BME280;58763;47.982;11.516;2023-03-03T11:42:26;94355.00;;;4.98;75.05
71107;BME280;58763;47.982;11.516;2023-03-03T11:45:39;94352.06;;;5.00;75.60
71107;BME280;58763;47.982;11.516;2023-03-03T11:48:21;94356.47;;;5.06;75.22
71107;BME280;58763;47.982;11.516;2023-03-03T11:50:59;94350.47;;;4.99;74.79
71107;BME280;58763;47.982;11.516;2023-03-03T11:53:44;94350.13;;;4.95;75.02
71107;BME280;58763;47.982;11.516;2023-03-03T11:56:26;94349.34;;;4.95;75.45
71107;BME280;58763;47.982;11.516;2023-03-03T11:59:13;94346.72;;;5.00;75.63
71107;BME280;58763;47.982;11.516;2023-03-03T12:01:48;94340.38;;;5.06;75.61
71107;BME280;58763;47.982;11.516;2023-03-03T12:04:35;94335.31;;;5.09;74.89
71107;BME280;58763;47.982;11.516;2023-03-03T12:07:09;94340.19;;;5.12;75.08
71107;BME280;58763;47.982;11.516;2023-03-03T12:12:41;94322.94;;;5.25;73.91
71107;BME280;58763;47.982;11.516;2023-03-03T12:15:45;94321.94;;;5.31;74.21
71107;BME280;58763;47.982;11.516;2023-03-03T12:18:28;94316.78;;;5.24;74.22
71107;BME280;58763;47.982;11.516;2023-03-03T12:29:11;94320.44;;;5.40;72.15
71107;BME280;58763;47.982;11.516;2023-03-03T12:31:52;94316.56;;;5.52;72.77
71107;BME280;58763;47.982;11.516;2023-03-03T12:35:14;94315.19;;;5.50;72.78
71107;BME280;58763;47.982;11.516;2023-03-03T12:37:46;94315.75;;;5.52;73.23
71107;BME280;58763;47.982;11.516;2023-03-03T12:40:18;94313.38;;;5.55;73.44
71107;BME280;58763;47.982;11.516;2023-03-03T12:48:16;94314.72;;;5.53;74.08
71107;BME280;58763;47.982;11.516;2023-03-03T12:56:53;94315.91;;;5.67;72.76
71107;BME280;58763;47.982;11.516;2023-03-03T13:05:20;94311.66;;;5.93;72.49
71107;BME280;58763;47.982;11.516;2023-03-03T13:16:21;94314.81;;;6.16;71.94
71107;BME280;58763;47.982;11.516;2023-03-03T13:18:57;94313.66;;;6.34;70.79
71107;BME280;58763;47.982;11.516;2023-03-03T13:21:29;94308.78;;;6.31;70.71
71107;BME280;58763;47.982;11.516;2023-03-03T13:26:55;94309.66;;;6.37;70.99
71107;BME280;58763;47.982;11.516;2023-03-03T13:29:30;94304.88;;;6.44;70.24
71107;BME280;58763;47.982;11.516;2023-03-03T13:32:02;94314.81;;;6.43;69.81
71107;BME280;58763;47.982;11.516;2023-03-03T13:34:50;94300.34;;;6.49;70.60
71107;BME280;58763;47.982;11.516;2023-03-03T13:37:21;94301.19;;;6.55;70.25
71107;BME280;58763;47.982;11.516;2023-03-03T13:42:51;94303.78;;;6.45;69.40
71107;BME280;58763;47.982;11.516;2023-03-03T13:48:29;94304.53;;;6.72;69.35
71107;BME280;58763;47.982;11.516;2023-03-03T13:56:41;94293.81;;;6.77;69.16
71107;BME280;58763;47.982;11.516;2023-03-03T13:59:33;94291.75;;;6.89;68.93
71107;BME280;58763;47.982;11.516;2023-03-03T14:05:12;94280.78;;;7.01;67.98
71107;BME280;58763;47.982;11.516;2023-03-03T14:07:45;94279.00;;;7.21;67.14
71107;BME280;58763;47.982;11.516;2023-03-03T14:10:20;94279.56;;;7.28;66.82
71107;BME280;58763;47.982;11.516;2023-03-03T14:15:39;94269.94;;;7.32;66.78
71107;BME280;58763;47.982;11.516;2023-03-03T14:20:50;94267.84;;;7.54;66.74
71107;BME280;58763;47.982;11.516;2023-03-03T14:23:49;94269.47;;;7.65;65.83
71107;BME280;58763;47.982;11.516;2023-03-03T14:26:16;94276.50;;;7.66;65.58
71107;BME280;58763;47.982;11.516;2023-03-03T14:28:47;94273.25;;;7.64;64.28
71107;BME280;58763;47.982;11.516;2023-03-03T14:31:27;94267.66;;;7.86;64.03
71107;BME280;58763;47.982;11.516;2023-03-03T14:36:40;94260.63;;;7.75;65.05
71107;BME280;58763;47.982;11.516;2023-03-03T14:39:28;94258.72;;;7.65;65.12
71107;BME280;58763;47.982;11.516;2023-03-03T14:41:54;94266.00;;;7.65;64.73
71107;BME280;58763;47.982;11.516;2023-03-03T14:49:37;94261.94;;;7.62;65.30
71107;BME280;58763;47.982;11.516;2023-03-03T14:54:50;94263.31;;;7.70;65.63
71107;BME280;58763;47.982;11.516;2023-03-03T14:57:20;94261.72;;;7.74;65.96
71107;BME280;58763;47.982;11.516;2023-03-03T15:00:00;94265.22;;;7.85;65.30
71107;BME280;58763;47.982;11.516;2023-03-03T15:02:40;94267.66;;;7.96;65.09
71107;BME280;58763;47.982;11.516;2023-03-03T15:05:28;94265.50;;;8.03;65.05
71107;BME280;58763;47.982;11.516;2023-03-03T15:07:57;94262.84;;;8.08;63.82
71107;BME280;58763;47.982;11.516;2023-03-03T15:10:41;94262.56;;;8.15;64.23
71107;BME280;58763;47.982;11.516;2023-03-03T15:18:24;94262.34;;;8.37;62.29
71107;BME280;58763;47.982;11.516;2023-03-03T15:20:51;94266.63;;;8.48;61.69
71107;BME280;58763;47.982;11.516;2023-03-03T15:23:50;94263.13;;;8.62;61.76
71107;BME280;58763;47.982;11.516;2023-03-03T15:29:28;94263.41;;;8.61;61.95
71107;BME280;58763;47.982;11.516;2023-03-03T15:42:47;94274.94;;;8.06;64.82
71107;BME280;58763;47.982;11.516;2023-03-03T15:45:30;94274.41;;;7.99;64.89
71107;BME280;58763;47.982;11.516;2023-03-03T15:56:54;94266.78;;;7.55;66.82
71107;BME280;58763;47.982;11.516;2023-03-03T16:02:38;94281.28;;;7.44;66.96
71107;BME280;58763;47.982;11.516;2023-03-03T16:05:14;94274.75;;;7.30;67.11
71107;BME280;58763;47.982;11.516;2023-03-03T16:07:59;94283.88;;;7.29;67.86
71107;BME280;58763;47.982;11.516;2023-03-03T16:10:38;94287.63;;;7.23;68.43
71107;BME280;58763;47.982;11.516;2023-03-03T16:27:19;94287.09;;;6.79;69.86
71107;BME280;58763;47.982;11.516;2023-03-03T16:30:00;94298.91;;;6.73;70.58
71107;BME280;58763;47.982;11.516;2023-03-03T16:35:23;94294.84;;;6.71;70.50
71107;BME280;58763;47.982;11.516;2023-03-03T16:38:05;94297.66;;;6.49;70.33
71107;BME280;58763;47.982;11.516;2023-03-03T16:40:54;94295.13;;;6.38;71.42
71107;BME280;58763;47.982;11.516;2023-03-03T16:43:48;94301.63;;;6.42;71.69
71107;BME280;58763;47.982;11.516;2023-03-03T16:46:34;94309.06;;;6.30;72.22
71107;BME280;58763;47.982;11.516;2023-03-03T16:57:08;94318.50;;;6.05;73.02
71107;BME280;58763;47.982;11.516;2023-03-03T17:07:42;94338.47;;;5.88;73.39
71107;BME280;58763;47.982;11.516;2023-03-03T17:13:15;94341.81;;;5.56;74.11